Time;durP1;ratioP1;P1;durP2;ratioP2;P2;SDS_P1;SDS_P2;PMS_P1;PMS_P2;Temp;Humidity;BMP_temperature;BMP_pressure;BME280_temperature;BME280_humidity;BME280_pressure;Samples;Min_cycle;Max_cycle;Signal;HPM_P1;HPM_P2
2022/04/18 00:00:50;;;;;;;4.40;2.08;;;10.20;62.30;;;10.20;46.07;101453.16;5125601;28;20078;-73
2022/04/18 00:03:22;;;;;;;4.75;2.08;;;10.10;62.90;;;10.12;46.70;101464.03;5124894;29;20142;-73
2022/04/18 00:05:55;;;;;;;4.03;2.05;;;10.00;63.50;;;10.03;47.35;101459.25;5125253;29;20105;-73
2022/04/18 00:08:27;;;;;;;5.93;2.30;;;9.90;64.20;;;9.96;47.54;101455.47;5123862;28;20055;-74
2022/04/18 00:10:59;;;;;;;5.80;2.00;;;9.80;64.80;;;9.91;47.96;101457.00;5125911;28;20047;-74
2022/04/18 00:13:31;;;;;;;5.35;2.30;;;9.80;65.10;;;9.84;48.46;101452.28;5126194;29;20047;-74
2022/04/18 00:16:04;;;;;;;5.10;2.45;;;9.70;65.30;;;9.79;48.62;101448.59;5126504;29;20055;-74
2022/04/18 00:18:36;;;;;;;5.50;2.50;;;9.60;65.30;;;9.75;48.58;101446.63;5126658;29;20043;-74
2022/04/18 00:21:09;;;;;;;6.88;2.83;;;9.60;65.50;;;9.71;48.36;101439.50;5126412;28;20058;-73
2022/04/18 00:23:41;;;;;;;7.25;3.08;;;9.60;65.60;;;9.67;48.77;101434.97;5126177;29;20051;-73
2022/04/18 00:26:14;;;;;;;5.65;2.65;;;9.50;65.80;;;9.62;49.21;101433.84;5126603;29;20488;-74
2022/04/18 00:28:46;;;;;;;6.03;2.42;;;9.50;66.10;;;9.61;49.61;101442.47;5126353;29;20053;-74
2022/04/18 00:31:18;;;;;;;6.78;2.80;;;9.50;66.70;;;9.57;49.53;101438.81;5126197;29;20452;-73
2022/04/18 00:33:50;;;;;;;4.53;2.53;;;9.40;66.60;;;9.55;49.45;101435.25;5125630;29;20055;-74
2022/04/18 00:36:23;;;;;;;5.10;2.45;;;9.40;66.20;;;9.54;49.51;101440.41;5126256;29;20054;-73
2022/04/18 00:38:55;;;;;;;4.53;2.42;;;9.40;66.60;;;9.50;49.28;101434.13;5126413;29;20559;-73
2022/04/18 00:41:27;;;;;;;6.50;2.25;;;9.40;66.60;;;9.44;49.56;101447.72;5125748;28;20058;-74
2022/04/18 00:43:59;;;;;;;5.57;2.72;;;9.30;66.70;;;9.40;50.08;101438.00;5125722;29;20083;-73
2022/04/18 00:46:31;;;;;;;4.13;2.50;;;9.30;67.10;;;9.35;50.38;101438.59;5125878;29;20047;-73
2022/04/18 00:49:04;;;;;;;5.78;2.17;;;9.20;67.60;;;9.30;50.76;101435.75;5125802;29;20051;-73
2022/04/18 00:51:37;;;;;;;6.65;2.53;;;9.20;67.80;;;9.24;51.07;101436.34;5125302;29;20089;-73
2022/04/18 00:54:11;;;;;;;4.80;2.40;;;9.10;68.40;;;9.17;51.59;101428.16;5125793;29;20048;-73
2022/04/18 00:56:44;;;;;;;6.10;3.00;;;9.10;68.80;;;9.13;52.05;101426.22;5125530;29;20404;-74
2022/04/18 00:59:16;;;;;;;4.68;2.35;;;9.00;69.60;;;9.07;52.39;101425.91;5125751;29;20508;-73
2022/04/18 01:01:48;;;;;;;5.00;2.58;;;9.00;69.50;;;9.01;53.08;101425.59;5124898;29;20055;-72
2022/04/18 01:04:21;;;;;;;4.68;2.25;;;8.90;70.20;;;8.94;53.15;101425.28;5125543;29;20053;-73
2022/04/18 01:06:55;;;;;;;4.10;2.25;;;8.90;70.60;;;8.89;53.18;101420.66;5125134;29;20057;-73
2022/04/18 01:09:27;;;;;;;3.55;2.08;;;8.80;70.60;;;8.83;53.62;101409.94;5125121;29;20074;-73
2022/04/18 01:11:59;;;;;;;4.55;2.40;;;8.70;70.70;;;8.79;53.48;101418.38;5124703;29;20055;-73
2022/04/18 01:14:31;;;;;;;4.00;2.20;;;8.70;70.80;;;8.74;53.50;101415.56;5125373;28;20054;-74
2022/04/18 01:17:04;;;;;;;3.60;2.00;;;8.70;70.80;;;8.69;53.22;101411.84;5125081;29;20047;-73
2022/04/18 01:19:36;;;;;;;4.10;2.05;;;8.60;70.90;;;8.64;53.64;101408.97;5124016;28;20047;-74
2022/04/18 01:22:10;;;;;;;4.00;2.50;;;8.60;71.40;;;8.60;54.47;101411.34;5124736;29;20416;-73
2022/04/18 01:30:30;;;;;;;4.35;1.80;;;8.50;72.70;;;8.51;54.58;101403.97;5124989;29;20062;-73
2022/04/18 01:33:02;;;;;;;3.28;1.85;;;8.40;72.70;;;8.52;54.23;101399.66;5124575;29;20067;-73
2022/04/18 01:35:36;;;;;;;3.70;1.92;;;8.40;72.80;;;8.51;54.61;101400.47;5124795;29;20521;-73
2022/04/18 01:38:09;;;;;;;4.18;2.42;;;8.40;73.00;;;8.54;54.21;101401.53;5124951;28;20465;-73
2022/04/18 01:40:41;;;;;;;5.20;2.00;;;8.40;72.70;;;8.53;54.29;101398.84;5124330;29;20110;-73
2022/04/18 01:43:16;;;;;;;4.53;1.70;;;8.40;73.30;;;8.48;54.44;101401.22;5125109;29;20051;-73
2022/04/18 01:45:48;;;;;;;2.83;2.10;;;8.40;73.60;;;8.43;54.93;101398.38;5125212;29;20057;-73
2022/04/18 01:48:20;;;;;;;3.50;1.90;;;8.40;74.20;;;8.40;54.71;101398.19;5124424;29;20051;-73
2022/04/18 01:50:52;;;;;;;4.57;2.28;;;8.30;74.00;;;8.42;54.16;101393.97;5124231;29;20051;-74
2022/04/18 01:53:27;;;;;;;4.18;2.88;;;8.30;73.30;;;8.45;54.03;101390.63;5124484;29;20427;-74
2022/04/18 01:56:00;;;;;;;3.63;1.80;;;8.40;73.70;;;8.44;53.88;101399.25;5124722;28;20051;-74
2022/04/18 01:58:32;;;;;;;5.07;2.05;;;8.40;73.90;;;8.38;54.36;101399.81;5124572;28;20508;-73
2022/04/18 02:01:04;;;;;;;5.10;1.80;;;8.30;74.50;;;8.31;54.88;101397.66;5124221;29;20524;-73
2022/04/18 02:03:36;;;;;;;3.08;2.10;;;8.30;75.20;;;8.24;55.00;101405.06;5123968;29;20051;-75
2022/04/18 02:06:08;;;;;;;5.45;2.60;;;8.20;76.10;;;8.16;55.90;101400.34;5124450;29;20651;-73
2022/04/18 02:08:41;;;;;;;4.22;2.53;;;8.10;77.30;;;8.09;56.62;101394.75;5124386;29;20236;-74
2022/04/18 02:11:13;;;;;;;4.32;2.33;;;8.10;78.10;;;8.03;56.65;101397.00;5124382;29;20062;-73
2022/04/18 02:13:46;;;;;;;4.93;1.98;;;8.00;78.60;;;7.98;56.50;101401.06;5123970;29;20051;-72
2022/04/18 02:16:18;;;;;;;3.67;2.03;;;8.00;79.00;;;7.95;56.67;101390.47;5124489;29;20051;-73
2022/04/18 02:18:50;;;;;;;3.58;1.85;;;7.90;79.30;;;7.95;55.65;101380.09;5124552;29;20058;-73
2022/04/18 02:21:23;;;;;;;3.22;2.13;;;7.90;78.60;;;7.95;55.24;101390.47;5123963;29;20051;-74
2022/04/18 02:23:56;;;;;;;3.83;2.28;;;7.90;78.20;;;7.98;54.34;101381.16;5123976;29;20452;-74
2022/04/18 02:26:28;;;;;;;2.80;1.63;;;8.00;77.80;;;7.99;54.69;101376.88;5124077;29;20051;-73
2022/04/18 02:29:00;;;;;;;4.95;2.03;;;8.00;77.20;;;7.97;54.52;101376.78;5124193;29;20051;-73
2022/04/18 02:32:47;;;;;;;4.47;1.60;;;7.90;78.20;;;7.96;54.79;101371.53;5123759;28;20139;-73
2022/04/18 02:34:25;;;;;;;4.05;2.45;;;7.90;79.20;;;7.91;55.13;101372.97;5123860;29;20405;-73
2022/04/18 02:36:57;;;;;;;4.10;1.90;;;7.90;80.20;;;7.86;56.48;101372.72;5123999;28;20063;-74
2022/04/18 02:39:30;;;;;;;2.42;1.65;;;7.80;81.40;;;7.81;56.36;101372.44;5124323;28;20048;-73
2022/04/18 02:42:02;;;;;;;3.67;2.47;;;7.80;82.60;;;7.74;57.27;101372.94;5123839;29;20449;-74
2022/04/18 02:44:35;;;;;;;3.42;2.28;;;7.70;83.20;;;7.66;57.20;101361.22;5124081;29;20055;-72
2022/04/18 02:47:07;;;;;;;3.38;2.10;;;7.70;84.00;;;7.62;57.58;101369.66;5123877;29;20047;-73
2022/04/18 02:49:39;;;;;;;3.58;1.95;;;7.60;84.90;;;7.57;57.45;101361.63;5124227;29;20491;-73
2022/04/18 02:52:11;;;;;;;3.67;1.73;;;7.60;86.30;;;7.53;58.35;101363.94;5123835;29;20141;-73
2022/04/18 02:54:44;;;;;;;3.72;2.00;;;7.50;87.00;;;7.48;57.59;101360.19;5124158;29;20150;-73
2022/04/18 02:57:16;;;;;;;3.80;2.10;;;7.50;87.80;;;7.44;57.92;101353.97;5124119;28;20090;-73
2022/04/18 02:59:48;;;;;;;4.05;2.08;;;7.50;88.70;;;7.41;58.67;101358.06;5123672;29;20061;-72
2022/04/18 03:02:20;;;;;;;4.25;2.20;;;7.40;89.90;;;7.38;58.89;101352.72;5123312;29;20047;-73
2022/04/18 03:04:52;;;;;;;3.53;1.98;;;7.40;90.50;;;7.33;59.70;101349.88;5123912;29;20047;-72
2022/04/18 03:07:24;;;;;;;4.50;2.00;;;7.30;91.30;;;7.31;59.93;101347.19;5123887;29;20059;-73
2022/04/18 03:09:58;;;;;;;3.55;2.00;;;7.30;91.80;;;7.30;58.44;101341.91;5123738;29;20048;-74
2022/04/18 03:12:30;;;;;;;3.35;1.70;;;7.30;90.80;;;7.32;57.64;101338.59;5123527;29;20058;-73
2022/04/18 03:15:04;;;;;;;4.22;1.63;;;7.30;90.20;;;7.37;56.20;101338.88;5123963;28;20051;-73
2022/04/18 03:17:36;;;;;;;2.47;1.73;;;7.30;88.90;;;7.44;56.67;101329.72;5123965;29;20051;-73
2022/04/18 03:20:10;;;;;;;3.55;1.88;;;7.40;89.40;;;7.44;56.98;101337.50;5124139;29;20050;-73
2022/04/18 03:22:42;;;;;;;3.78;1.65;;;7.40;90.20;;;7.46;57.37;101331.59;5122983;28;20057;-74
2022/04/18 03:25:15;;;;;;;2.50;1.65;;;7.40;90.30;;;7.45;56.40;101324.63;5123775;29;20057;-74
2022/04/18 03:27:48;;;;;;;3.42;1.83;;;7.40;88.90;;;7.45;55.22;101323.72;5123824;29;20051;-73
2022/04/18 03:30:20;;;;;;;2.78;1.60;;;7.40;87.60;;;7.44;53.47;101332.31;5123483;29;20051;-74
2022/04/18 03:32:52;;;;;;;2.40;1.80;;;7.50;82.70;;;7.52;52.67;101325.84;5122977;28;20051;-73
2022/04/18 03:35:24;;;;;;;2.88;1.83;;;7.50;82.40;;;7.58;52.05;101321.00;5123899;29;20062;-73
2022/04/18 03:40:58;;;;;;;4.07;1.83;;;7.60;82.10;;;7.72;52.63;101321.75;5081771;29;20052;-72
2022/04/18 03:43:30;;;;;;;3.30;1.90;;;7.70;81.60;;;7.74;53.38;101327.91;5116793;28;20051;-72
2022/04/18 03:46:02;;;;;;;3.40;1.80;;;7.70;82.10;;;7.72;51.63;101322.66;5127294;29;20051;-73
2022/04/18 03:48:34;;;;;;;3.83;2.10;;;7.70;79.60;;;7.74;51.65;101318.41;5126982;29;20416;-73
2022/04/18 03:51:06;;;;;;;2.42;1.58;;;7.70;79.10;;;7.76;52.07;101319.41;5126969;29;20051;-73
2022/04/18 03:53:38;;;;;;;3.28;1.80;;;7.80;80.10;;;7.75;50.77;101315.00;5126319;29;20047;-73
2022/04/18 03:56:11;;;;;;;2.50;1.45;;;7.80;78.10;;;7.76;51.44;101311.63;5126833;29;20051;-73
2022/04/18 03:58:43;;;;;;;4.55;1.80;;;7.80;78.10;;;7.81;51.19;101315.34;5127112;29;20051;-74
2022/04/18 04:01:15;;;;;;;2.30;1.50;;;7.80;78.80;;;7.80;51.99;101308.38;5126750;29;20504;-73
2022/04/18 04:03:47;;;;;;;3.35;1.70;;;7.80;80.50;;;7.76;53.00;101310.72;5126296;29;20057;-73
2022/04/18 04:06:19;;;;;;;4.15;1.92;;;7.80;81.80;;;7.70;53.67;101310.41;5126687;28;20496;-74
2022/04/18 04:08:51;;;;;;;4.50;1.80;;;7.70;83.10;;;7.64;53.81;101317.84;5126821;29;20488;-73
2022/04/18 04:11:25;;;;;;;2.58;1.60;;;7.60;84.10;;;7.55;54.23;101313.03;5126360;29;20047;-73
2022/04/18 04:13:57;;;;;;;3.47;1.73;;;7.60;84.40;;;7.47;54.73;101316.91;5115743;28;20062;-74
2022/04/18 04:16:29;;;;;;;3.78;1.85;;;7.50;85.70;;;7.39;55.63;101310.41;5126454;28;20511;-73
2022/04/18 04:19:01;;;;;;;3.15;1.77;;;7.40;87.20;;;7.34;54.87;101320.53;5126404;28;20507;-73
2022/04/18 04:21:33;;;;;;;3.05;1.77;;;7.40;87.00;;;7.32;54.69;101315.25;5152200;23;20494;-69
2022/04/18 04:24:06;;;;;;;3.30;1.90;;;7.30;85.60;;;7.35;54.45;101318.00;5163722;28;20078;-70
2022/04/18 04:26:39;;;;;;;2.35;1.73;;;7.30;85.40;;;7.39;54.94;101313.00;5166103;28;20502;-70
2022/04/18 04:29:11;;;;;;;3.38;2.05;;;7.40;87.30;;;7.37;55.25;101323.31;5166088;28;20513;-70
2022/04/18 04:31:43;;;;;;;2.85;1.63;;;7.30;88.20;;;7.33;56.29;101322.22;5166095;28;20054;-69
2022/04/18 04:34:16;;;;;;;3.55;1.70;;;7.30;89.00;;;7.29;56.19;101328.03;5148323;28;20492;-70
2022/04/18 04:36:48;;;;;;;3.95;1.70;;;7.30;90.20;;;7.28;57.10;101322.78;5146282;28;20138;-70
2022/04/18 04:39:20;;;;;;;5.80;2.00;;;7.30;90.90;;;7.24;55.33;101324.31;5146244;28;20057;-70
2022/04/18 04:41:53;;;;;;;4.35;1.90;;;7.20;88.50;;;7.24;55.32;101323.44;5145612;28;20054;-70
2022/04/18 04:44:25;;;;;;;3.90;2.30;;;7.30;87.80;;;7.23;54.49;101317.31;5145930;28;20056;-70
2022/04/18 04:46:57;;;;;;;2.42;1.73;;;7.20;85.60;;;7.25;53.92;101320.03;5146124;28;20050;-70
2022/04/18 04:49:29;;;;;;;3.42;1.83;;;7.30;84.80;;;7.29;53.40;101317.66;5146086;28;20047;-70
2022/04/18 04:52:01;;;;;;;2.83;1.67;;;7.30;83.90;;;7.34;53.60;101312.75;5146043;28;20065;-69
2022/04/18 04:54:33;;;;;;;1.70;1.52;;;7.40;84.20;;;7.36;53.22;101308.53;5146075;28;20491;-71
2022/04/18 04:57:07;;;;;;;3.85;2.17;;;7.40;83.80;;;7.43;53.69;101312.34;5145936;28;20500;-70
2022/04/18 04:59:38;;;;;;;2.95;1.90;;;7.50;85.60;;;7.42;52.92;101318.34;5145584;28;20047;-70
2022/04/18 05:02:11;;;;;;;3.42;1.80;;;7.50;83.30;;;7.46;54.11;101317.72;5145299;28;20053;-70
2022/04/18 05:04:43;;;;;;;2.38;1.58;;;7.50;84.90;;;7.47;52.61;101320.41;5145365;28;20058;-69
2022/04/18 05:07:15;;;;;;;2.85;1.77;;;7.50;83.30;;;7.56;53.22;101322.59;5145850;28;20047;-69
2022/04/18 05:09:47;;;;;;;2.33;1.70;;;7.60;84.10;;;7.57;52.56;101321.81;5145462;28;20057;-69
2022/04/18 05:12:21;;;;;;;4.63;1.80;;;7.60;82.60;;;7.60;52.93;101324.56;5145728;28;20137;-70
2022/04/18 05:14:53;;;;;;;5.45;1.90;;;7.60;82.40;;;7.66;52.88;101324.91;5145411;28;20050;-70
2022/04/18 05:17:25;;;;;;;2.80;1.52;;;7.70;82.60;;;7.71;51.84;101327.75;5145264;28;20057;-69
2022/04/18 05:19:57;;;;;;;3.90;1.98;;;7.70;81.20;;;7.75;51.24;101324.50;5145447;28;20046;-70
2022/04/18 05:22:29;;;;;;;4.05;1.90;;;7.80;80.60;;;7.79;51.52;101327.34;5144793;28;20056;-70
2022/04/18 05:25:01;;;;;;;3.50;1.85;;;7.90;79.80;;;7.86;51.09;101333.78;5145288;28;20303;-69
2022/04/18 05:27:34;;;;;;;2.85;1.63;;;7.90;79.60;;;7.99;51.75;101335.34;5145237;28;20061;-70
2022/04/18 05:30:08;;;;;;;4.85;1.70;;;8.00;80.80;;;8.77;51.81;101345.53;5145394;28;20050;-69
2022/04/18 05:32:43;;;;;;;3.47;2.08;;;8.30;82.60;;;10.61;50.36;101352.50;5145054;28;20407;-70
2022/04/18 05:35:15;;;;;;;3.53;1.83;;;9.30;85.30;;;12.53;46.47;101355.78;5145177;28;20125;-69
2022/04/18 05:37:47;;;;;;;2.47;1.55;;;10.70;81.60;;;14.17;42.75;101352.44;5145001;28;20053;-70
2022/04/18 05:40:19;;;;;;;2.70;1.67;;;12.10;75.60;;;15.44;38.98;101356.69;5144735;28;20046;-70
2022/04/18 05:42:52;;;;;;;3.00;1.80;;;13.30;68.70;;;16.40;37.11;101363.22;5144803;28;20054;-69
2022/04/18 05:45:25;;;;;;;4.78;1.80;;;14.40;64.70;;;17.13;35.39;101368.09;5144891;28;20055;-69
2022/04/18 05:47:57;;;;;;;3.88;1.55;;;15.20;61.20;;;17.66;34.59;101368.94;5144824;28;20061;-69
2022/04/18 05:50:29;;;;;;;3.55;1.73;;;15.80;59.60;;;18.05;33.98;101366.03;5146633;28;20483;-69
2022/04/18 05:53:01;;;;;;;3.60;1.60;;;16.30;58.10;;;18.32;32.87;101364.59;5144623;28;20500;-69
2022/04/18 05:55:35;;;;;;;3.58;1.48;;;16.70;56.10;;;18.48;32.42;101369.22;5164753;28;20050;-70
2022/04/18 05:58:09;;;;;;;;;;;17.10;55.00;;;18.55;32.33;101367.53;5165139;28;20047;-68
2022/04/18 06:00:41;;;;;;;2.60;1.98;;;17.30;54.20;;;18.73;31.37;101362.47;5164200;28;20298;-69
2022/04/18 06:03:13;;;;;;;3.92;1.90;;;17.50;52.80;;;18.82;30.35;101369.59;5163948;28;20056;-68
2022/04/18 06:05:45;;;;;;;3.83;2.10;;;17.70;51.20;;;18.91;29.98;101367.06;5164145;28;20050;-69
2022/04/18 06:08:17;;;;;;;5.35;2.17;;;17.90;50.40;;;19.06;30.05;101361.91;5152915;28;20423;-67
2022/04/18 06:10:49;;;;;;;2.25;1.48;;;18.10;50.20;;;19.06;29.97;101361.91;5144389;28;20452;-68
2022/04/18 06:13:23;;;;;;;3.10;1.50;;;18.20;50.00;;;19.00;28.93;101367.16;5143931;28;20137;-68
2022/04/18 06:15:55;;;;;;;3.45;1.95;;;18.20;48.60;;;19.00;28.95;101367.16;5144186;28;20060;-70
2022/04/18 06:18:28;;;;;;;3.45;1.52;;;18.20;48.20;;;18.97;29.18;101364.47;5144479;28;20050;-69
2022/04/18 06:21:00;;;;;;;2.75;1.55;;;18.20;48.60;;;18.99;29.74;101370.66;5144246;28;20050;-69
2022/04/18 06:23:32;;;;;;;2.55;1.48;;;18.20;49.10;;;18.96;30.36;101370.63;5143621;28;20055;-70
2022/04/18 06:26:04;;;;;;;2.65;1.50;;;18.10;49.80;;;18.97;29.88;101369.75;5144086;28;20050;-69
2022/04/18 06:28:37;;;;;;;1.95;1.55;;;18.10;49.30;;;19.12;29.64;101367.25;5146414;28;20518;-69
2022/04/18 06:31:09;;;;;;;2.70;1.80;;;18.20;49.00;;;19.28;29.10;101359.44;5144075;28;20047;-70
2022/04/18 06:33:41;;;;;;;1.90;1.40;;;18.30;48.80;;;19.44;28.96;101364.00;5143772;28;20508;-69
2022/04/18 06:36:13;;;;;;;2.72;1.60;;;18.40;48.40;;;19.55;28.94;101372.88;5144027;28;20133;-69
2022/04/18 06:38:45;;;;;;;4.32;2.30;;;18.50;48.20;;;19.65;28.15;101372.13;5143645;28;20423;-69
2022/04/18 06:41:17;;;;;;;3.13;1.45;;;18.60;47.20;;;19.75;27.76;101373.03;5144172;28;20492;-70
2022/04/18 06:43:50;;;;;;;2.42;1.67;;;18.70;46.70;;;19.81;27.81;101374.84;5143716;28;20046;-70
2022/04/18 06:46:22;;;;;;;3.60;1.50;;;18.80;46.90;;;19.88;28.15;101379.28;5145654;28;20059;-69
2022/04/18 06:48:54;;;;;;;2.65;1.63;;;18.90;47.10;;;20.02;28.06;101385.56;5144016;28;20055;-69
2022/04/18 06:51:26;;;;;;;1.77;1.63;;;19.00;47.20;;;20.13;27.06;101378.56;5143758;28;20051;-68
2022/04/18 06:53:58;;;;;;;2.95;1.67;;;19.00;46.00;;;20.21;27.42;101381.22;5143628;28;20057;-69
2022/04/18 06:59:21;;;;;;;2.15;1.40;;;19.50;45.80;;;20.71;26.28;101376.16;5143524;28;20117;-69
2022/04/18 07:01:53;;;;;;;3.25;1.83;;;19.70;44.90;;;20.74;26.54;101376.16;5143454;28;20409;-66
2022/04/18 07:04:26;;;;;;;2.38;1.67;;;19.80;44.90;;;20.30;26.76;101383.94;5143552;28;20046;-68
2022/04/18 07:06:58;;;;;;;3.33;1.73;;;19.70;45.70;;;20.08;26.58;101368.81;5126266;28;20484;-69
2022/04/18 07:09:30;;;;;;;2.17;1.48;;;19.60;45.00;;;19.77;27.50;101377.50;5137659;28;20089;-66
2022/04/18 07:12:02;;;;;;;2.75;1.40;;;19.50;45.00;;;19.72;27.61;101380.97;5142071;28;20054;-66
2022/04/18 07:14:38;;;;;;;3.72;1.80;;;19.50;45.10;;;19.93;27.24;101374.91;5129575;28;20046;-65
2022/04/18 07:17:10;;;;;;;2.97;1.42;;;19.50;45.20;;;20.18;26.51;101376.81;5143722;28;20475;-64
2022/04/18 07:19:41;;;;;;;3.60;1.55;;;19.60;44.30;;;20.26;26.60;101380.38;5147407;28;20054;-65
2022/04/18 07:22:13;;;;;;;2.13;1.45;;;19.70;45.10;;;20.19;26.74;101373.28;5146736;28;20510;-65
2022/04/18 07:24:46;;;;;;;2.35;1.60;;;19.70;44.40;;;20.37;26.48;101376.91;5147446;28;20416;-64
2022/04/18 07:27:17;;;;;;;2.42;1.42;;;19.80;44.20;;;20.59;26.35;101379.66;5146164;28;20054;-64
2022/04/18 07:29:51;;;;;;;2.92;1.60;;;20.00;44.10;;;20.88;26.22;101381.50;5147117;28;20507;-65
2022/04/18 07:32:23;;;;;;;2.42;1.42;;;20.20;44.00;;;20.59;26.17;101373.47;5146643;28;20178;-65
2022/04/18 07:34:55;;;;;;;3.03;1.90;;;20.20;43.60;;;20.78;26.47;101377.03;5146917;28;20424;-65
2022/04/18 07:37:27;;;;;;;2.65;1.40;;;20.30;44.00;;;20.98;25.78;101372.66;5147314;28;20512;-64
2022/04/18 07:39:59;;;;;;;3.65;1.90;;;20.40;43.50;;;21.04;25.39;101371.78;5147205;28;20042;-64
2022/04/18 07:42:31;;;;;;;3.42;1.70;;;20.40;43.00;;;21.22;25.62;101370.91;5146560;28;20046;-63
2022/04/18 07:45:05;;;;;;;2.05;1.65;;;20.50;43.30;;;21.42;25.22;101373.59;5146944;28;20056;-64
2022/04/18 07:47:37;;;;;;;2.70;1.58;;;20.60;42.90;;;21.74;24.88;101370.91;5146809;28;20051;-65
2022/04/18 07:50:10;;;;;;;3.30;1.77;;;20.80;42.90;;;21.78;24.72;101375.31;5146987;28;20051;-63
2022/04/18 07:52:42;;;;;;;2.00;1.58;;;20.90;42.60;;;21.99;24.47;101374.38;5146556;28;20058;-66
2022/04/18 07:55:14;;;;;;;4.22;1.85;;;20.90;42.50;;;22.10;24.58;101375.25;5146607;28;20050;-65
2022/04/18 07:57:46;;;;;;;3.13;1.60;;;21.00;42.70;;;22.49;24.38;101371.53;5145847;28;20061;-65
2022/04/18 08:00:20;;;;;;;2.30;1.73;;;21.20;42.60;;;23.05;23.73;101369.47;5146511;28;20129;-70
2022/04/18 08:02:52;;;;;;;4.28;1.85;;;21.50;42.50;;;23.40;23.45;101367.38;5146321;28;20108;-69
2022/04/18 08:05:24;;;;;;;3.10;1.83;;;21.60;42.10;;;23.83;22.27;101377.66;5147159;28;20313;-69
2022/04/18 08:07:56;;;;;;;3.17;1.63;;;21.80;41.10;;;24.18;21.98;101373.69;5146835;28;20061;-70
2022/04/18 08:10:29;;;;;;;3.78;1.65;;;22.00;41.80;;;24.69;21.71;101364.16;5148381;28;20050;-70
2022/04/18 08:13:01;;;;;;;3.85;1.63;;;22.20;41.30;;;25.25;21.46;101364.22;5146345;28;20062;-69
2022/04/18 08:15:34;;;;;;;3.47;2.00;;;22.60;41.10;;;25.55;20.83;101366.34;5146780;28;20246;-71
2022/04/18 08:18:06;;;;;;;2.55;1.40;;;22.70;40.10;;;25.95;20.54;101362.94;5146557;28;20046;-71
2022/04/18 08:20:38;;;;;;;2.75;1.90;;;22.90;40.20;;;26.50;20.02;101367.19;5146164;28;20053;-72
2022/04/18 08:23:10;;;;;;;4.20;1.50;;;23.10;40.10;;;26.81;20.06;101366.50;5145997;28;20058;-69
2022/04/18 08:25:42;;;;;;;3.13;1.65;;;23.30;40.00;;;27.71;19.62;101365.16;5146254;28;20050;-70
2022/04/18 08:28:14;;;;;;;4.03;1.80;;;23.70;40.20;;;28.54;18.70;101366.31;5146290;28;20055;-70
2022/04/18 08:30:48;;;;;;;2.22;1.60;;;24.10;39.60;;;28.90;17.79;101375.03;5146490;28;20129;-70
2022/04/18 08:33:20;;;;;;;4.13;1.80;;;24.30;38.30;;;29.61;17.88;101370.91;5145841;28;20057;-70
2022/04/18 08:35:52;;;;;;;3.90;1.77;;;24.70;38.80;;;30.32;17.08;101368.34;5146316;28;20057;-71
2022/04/18 08:38:24;;;;;;;2.72;1.80;;;25.10;38.60;;;29.94;16.86;101352.69;5146467;28;20424;-71
2022/04/18 08:40:59;;;;;;;3.70;2.20;;;25.20;37.80;;;30.20;16.82;101359.81;5145932;28;20043;-71
2022/04/18 08:43:31;;;;;;;4.18;1.85;;;25.50;37.60;;;31.07;16.54;101353.66;5145631;28;20051;-68
2022/04/18 08:46:06;;;;;;;3.50;1.52;;;26.20;37.40;;;31.25;15.62;101353.88;5146225;28;20511;-69
2022/04/18 08:54:18;;;;;;;2.50;1.70;;;27.20;35.90;;;31.99;15.44;101355.09;5145148;28;20423;-68
2022/04/18 08:56:51;;;;;;;4.03;1.88;;;27.50;36.10;;;32.32;15.04;101357.16;5145475;28;20078;-69
2022/04/18 08:59:23;;;;;;;2.65;1.83;;;27.80;35.60;;;32.25;15.23;101348.50;5145834;28;20058;-67
2022/04/18 09:01:56;;;;;;;2.42;1.50;;;27.90;35.60;;;32.15;15.13;101349.88;5145467;28;20053;-68
2022/04/18 09:04:28;;;;;;;;;;;28.00;35.30;;;31.37;14.94;101350.66;5145734;28;20055;-67
2022/04/18 09:07:10;;;;;;;3.75;2.17;;;27.80;34.30;;;30.63;15.54;101338.44;5144381;28;19965;-66
2022/04/18 09:09:43;;;;;;;3.65;2.05;;;27.40;34.70;;;30.32;16.40;101334.28;5157075;28;20057;-67
2022/04/18 09:12:19;;;;;;;3.22;1.80;;;27.20;35.60;;;29.97;17.03;101331.06;5153100;28;20436;-66
2022/04/18 09:14:51;;;;;;;3.38;1.83;;;27.10;36.00;;;29.51;17.30;101333.66;5145618;28;20058;-69
2022/04/18 09:17:33;;;;;;;3.20;2.03;;;26.90;36.20;;;28.76;17.56;101326.31;5146151;28;20055;-70
2022/04/18 09:20:08;;;;;;;2.25;1.70;;;26.60;36.10;;;27.80;18.21;101329.19;5145294;28;20131;-70
2022/04/18 09:22:44;;;;;;;4.32;2.28;;;26.10;36.00;;;26.97;18.97;101314.38;5148265;28;20054;-69
2022/04/18 09:25:18;;;;;;;3.72;2.00;;;25.60;36.40;;;26.33;20.47;101314.06;5148916;28;20050;-68
2022/04/18 09:27:56;;;;;;;2.50;1.75;;;25.20;37.70;;;25.69;20.50;101316.28;5147224;28;20085;-69
2022/04/18 09:30:33;;;;;;;2.95;2.05;;;24.80;37.30;;;25.29;21.00;101300.09;5145986;28;20133;-70
2022/04/18 09:33:08;;;;;;;2.40;1.85;;;24.50;37.80;;;24.86;20.99;101300.81;5145491;28;20062;-69
2022/04/18 09:35:40;;;;;;;2.10;1.73;;;24.10;37.80;;;24.57;21.90;101293.25;5145580;28;20555;-70
2022/04/18 09:38:12;;;;;;;2.53;1.83;;;23.80;38.80;;;24.47;22.47;101299.66;5145878;28;20510;-68
2022/04/18 09:40:46;;;;;;;3.65;2.00;;;23.70;39.70;;;24.49;22.60;101295.16;5144792;28;20057;-69
2022/04/18 09:43:18;;;;;;;3.08;2.10;;;23.60;39.90;;;24.35;21.54;101295.38;5145534;28;20405;-70
2022/04/18 09:45:51;;;;;;;3.58;2.00;;;23.50;38.40;;;24.27;21.28;101291.03;5147921;28;20138;-68
2022/04/18 09:48:27;;;;;;;2.17;1.63;;;23.40;38.30;;;24.35;20.94;101289.16;5145877;28;20056;-69
2022/04/18 09:51:01;;;;;;;3.92;1.98;;;23.30;38.00;;;24.40;21.35;101289.97;5145552;28;20137;-69
2022/04/18 09:53:34;;;;;;;2.60;1.77;;;23.40;38.80;;;24.33;21.07;101286.53;5145149;28;20496;-69
2022/04/18 09:56:06;;;;;;;3.53;2.00;;;23.40;37.90;;;24.23;22.41;101276.84;5145396;28;20047;-69
2022/04/18 09:58:39;;;;;;;2.72;1.70;;;23.20;39.30;;;24.23;22.76;101265.31;5144355;28;20046;-66
2022/04/18 10:01:13;;;;;;;2.63;1.80;;;23.20;40.40;;;24.29;22.24;101260.78;5157175;28;20050;-65
2022/04/18 10:03:50;;;;;;;3.50;1.55;;;23.20;39.70;;;24.27;22.30;101261.72;5154059;28;20061;-65
2022/04/18 10:06:23;;;;;;;1.80;1.55;;;23.20;39.30;;;24.24;23.05;101253.75;5154981;28;20070;-64
2022/04/18 10:08:55;;;;;;;2.42;1.75;;;23.20;40.00;;;24.32;23.01;101257.19;5147383;28;20057;-65
2022/04/18 10:11:27;;;;;;;3.92;2.10;;;23.30;40.30;;;24.40;22.61;101258.00;5163306;28;20057;-64
2022/04/18 10:13:59;;;;;;;3.42;1.90;;;23.30;39.70;;;24.52;21.61;101241.84;5159344;28;20495;-65
2022/04/18 10:16:32;;;;;;;2.38;1.85;;;23.40;39.00;;;24.53;21.10;101232.94;5160991;28;20303;-67
2022/04/18 10:19:19;;;;;;;3.25;1.80;;;23.40;38.20;;;24.56;20.46;101232.88;5150281;28;20146;-65
2022/04/18 10:22:06;;;;;;;2.80;1.60;;;23.40;37.70;;;24.32;21.29;101225.22;5246257;23;20048;-65
2022/04/18 10:25:00;;;;;;;4.97;1.95;;;23.30;37.90;;;23.93;20.43;101232.91;5180422;28;20053;-66
2022/04/18 10:28:04;;;;;;;3.30;1.65;;;23.20;37.90;;;23.40;22.16;101229.06;5184314;28;20305;-65
2022/04/18 10:30:42;;;;;;;4.82;1.98;;;22.90;38.80;;;23.43;21.85;101220.19;5173253;28;20546;-67
2022/04/18 10:33:15;;;;;;;3.30;1.90;;;22.80;38.50;;;23.58;22.74;101219.09;5164427;28;20050;-66
2022/04/18 10:35:53;;;;;;;2.80;1.73;;;22.80;39.60;;;23.76;22.45;101213.59;5164285;28;20442;-65
2022/04/18 10:38:27;;;;;;;4.20;1.55;;;22.80;39.30;;;23.72;22.16;101214.53;5164581;28;20097;-67
2022/04/18 10:44:03;;;;;;;2.55;1.50;;;22.60;38.10;;;23.00;22.54;101202.88;5163492;28;20062;-66
2022/04/18 10:46:36;;;;;;;2.33;1.58;;;22.40;39.00;;;23.25;22.73;101197.31;5164315;28;20050;-65
2022/04/18 10:49:16;;;;;;;2.47;1.92;;;22.40;39.40;;;23.56;22.13;101204.03;5164290;28;20062;-66
2022/04/18 10:51:53;;;;;;;2.78;1.67;;;22.60;39.30;;;23.59;22.00;101191.59;5164382;28;20050;-67
2022/04/18 10:54:28;;;;;;;2.67;1.77;;;22.60;38.70;;;23.65;21.93;101199.53;5167957;28;20054;-65
2022/04/18 10:57:05;;;;;;;4.72;1.83;;;22.70;38.80;;;23.53;20.88;101198.75;5168494;28;20122;-64
2022/04/18 10:59:41;;;;;;;3.08;1.88;;;22.70;37.60;;;22.90;20.44;101195.03;5168329;28;20054;-65
2022/04/18 11:02:39;;;;;;;2.58;1.30;;;22.40;36.30;;;22.66;21.34;101194.31;5167725;28;20105;-65
2022/04/18 11:05:11;;;;;;;2.58;1.63;;;22.20;37.60;;;22.76;21.49;101187.16;5164400;28;20137;-63